Calwood, Missouri
Current Conditions -  °F | °C
As of 7:54 AM on Thursday 30 Oct 2014 (Local Time) from KCOU Reporting Station
Broken Clouds Broken Clouds  
Wind Chill: 35°   Ceiling: 9000
Heat Index: 41°   Visibility: 10mi
Dew Point: 35°   Wind: 10mph
Humidity: 79%   Direction: 130°SE
Pressure: 30.08"   Gusts: NA
Location:  38.8555°N, 91.9568°W
Report Text: KCOU 301254Z 13009KT 10SM BKN090 05/02 A3008 RMK AO2 SLP189 T00500017
Loading
Personal Weather Stations






























Interactive Weather Map
Tropical Storm Tracking
New forecast layout! Learn more

10-Day Weather Forecast

Advertisements
Track Severe Weather on mobile